Time;durP1;ratioP1;P1;durP2;ratioP2;P2;SDS_P1;SDS_P2;PMS_P1;PMS_P2;Temp;Humidity;BMP_temperature;BMP_pressure;BME280_temperature;BME280_humidity;BME280_pressure;Samples;Min_cycle;Max_cycle;Signal;HPM_P1;HPM_P2
2022/09/13 00:00:45;;;;;;;0.00;0.00;;;;;;;;;;1760099;27;20255;-70
2022/09/13 00:01:38;;;;;;;0.00;0.00;;;;;;;;;;1760385;28;20200;-70
2022/09/13 00:02:29;;;;;;;0.00;0.00;;;;;;;;;;1762701;27;20215;-70
2022/09/13 00:03:21;;;;;;;0.00;0.00;;;;;;;;;;1767690;27;20204;-70
2022/09/13 00:04:12;;;;;;;0.00;0.00;;;;;;;;;;1766961;27;20208;-70
2022/09/13 00:05:06;;;;;;;0.00;0.00;;;;;;;;;;1767860;27;20822;-70
2022/09/13 00:06:00;;;;;;;0.00;0.00;;;;;;;;;;1765451;27;20228;-71
2022/09/13 00:06:52;;;;;;;0.00;0.00;;;;;;;;;;1767538;27;20542;-71
2022/09/13 00:07:43;;;;;;;0.00;0.00;;;;;;;;;;1767166;27;20200;-71
2022/09/13 00:08:36;;;;;;;0.00;0.00;;;;;;;;;;1767289;27;20278;-71
2022/09/13 00:09:27;;;;;;;0.00;0.00;;;;;;;;;;1760281;28;20922;-71
2022/09/13 00:10:19;;;;;;;0.00;0.00;;;;;;;;;;1759092;28;20205;-70
2022/09/13 00:11:14;;;;;;;0.00;0.00;;;;;;;;;;1767448;27;20724;-70
2022/09/13 00:12:06;;;;;;;0.00;0.00;;;;;;;;;;1766688;27;20196;-70
2022/09/13 00:12:57;;;;;;;0.00;0.00;;;;;;;;;;1767017;27;20204;-70
2022/09/13 00:13:50;;;;;;;0.00;0.00;;;;;;;;;;1766996;27;20200;-70
2022/09/13 00:14:41;;;;;;;0.00;0.00;;;;;;;;;;1767579;27;20591;-70
2022/09/13 00:15:33;;;;;;;0.00;0.00;;;;;;;;;;1765831;27;20892;-71
2022/09/13 00:16:25;;;;;;;0.00;0.00;;;;;;;;;;1767456;27;20540;-71
2022/09/13 00:17:18;;;;;;;0.00;0.00;;;;;;;;;;1767160;27;20985;-71
2022/09/13 00:18:09;;;;;;;0.00;0.00;;;;;;;;;;1766816;27;20246;-71
2022/09/13 00:19:01;;;;;;;0.00;0.00;;;;;;;;;;1766466;27;20207;-71
2022/09/13 00:19:52;;;;;;;0.00;0.00;;;;;;;;;;1767494;27;20201;-71
2022/09/13 00:20:46;;;;;;;0.00;0.00;;;;;;;;;;1766042;27;20227;-71
2022/09/13 00:21:37;;;;;;;0.00;0.00;;;;;;;;;;1767337;27;20204;-70
2022/09/13 00:22:29;;;;;;;0.00;0.00;;;;;;;;;;1766985;27;20254;-70
2022/09/13 00:23:21;;;;;;;0.00;0.00;;;;;;;;;;1767126;27;20204;-70
2022/09/13 00:24:13;;;;;;;0.00;0.00;;;;;;;;;;1767331;27;20200;-70
2022/09/13 00:25:05;;;;;;;0.00;0.00;;;;;;;;;;1767838;27;20291;-70
2022/09/13 00:26:03;;;;;;;0.00;0.00;;;;;;;;;;1765437;27;20224;-71
2022/09/13 00:26:54;;;;;;;0.00;0.00;;;;;;;;;;1767364;27;20211;-72
2022/09/13 00:27:45;;;;;;;0.00;0.00;;;;;;;;;;1767225;27;20192;-71
2022/09/13 00:28:38;;;;;;;0.00;0.00;;;;;;;;;;1767253;27;20192;-72
2022/09/13 00:29:29;;;;;;;0.00;0.00;;;;;;;;;;1761509;27;20201;-72
2022/09/13 00:30:21;;;;;;;0.00;0.00;;;;;;;;;;1759518;27;20192;-72
2022/09/13 00:31:12;;;;;;;0.00;0.00;;;;;;;;;;1765239;27;20200;-71
2022/09/13 00:32:05;;;;;;;0.00;0.00;;;;;;;;;;1763223;27;20201;-71
2022/09/13 00:32:56;;;;;;;0.00;0.00;;;;;;;;;;1757724;28;20201;-71
2022/09/13 00:33:48;;;;;;;0.00;0.00;;;;;;;;;;1756824;28;20205;-72
2022/09/13 00:34:39;;;;;;;0.00;0.00;;;;;;;;;;1767200;27;20211;-71
2022/09/13 00:35:32;;;;;;;0.00;0.00;;;;;;;;;;1765915;27;21158;-70
2022/09/13 00:36:25;;;;;;;0.00;0.00;;;;;;;;;;1767373;27;20235;-70
2022/09/13 00:37:17;;;;;;;0.00;0.00;;;;;;;;;;1767170;27;20246;-70
2022/09/13 00:38:08;;;;;;;0.00;0.00;;;;;;;;;;1762618;27;20546;-70
2022/09/13 00:39:00;;;;;;;0.00;0.00;;;;;;;;;;1760040;28;20207;-70
2022/09/13 00:39:51;;;;;;;0.00;0.00;;;;;;;;;;1760016;28;20197;-70
2022/09/13 00:40:44;;;;;;;0.00;0.00;;;;;;;;;;1759085;28;20657;-71
2022/09/13 00:41:35;;;;;;;0.00;0.00;;;;;;;;;;1760303;28;20204;-71
2022/09/13 00:42:27;;;;;;;0.00;0.00;;;;;;;;;;1759616;28;20204;-71
2022/09/13 00:43:20;;;;;;;0.00;0.00;;;;;;;;;;1760421;28;20526;-71
2022/09/13 00:44:27;;;;;;;0.00;0.00;;;;;;;;;;1760062;28;20200;-72
2022/09/13 00:45:18;;;;;;;0.00;0.00;;;;;;;;;;1757990;28;20216;-72
2022/09/13 00:46:12;;;;;;;0.00;0.00;;;;;;;;;;1760326;28;20201;-71
2022/09/13 00:47:03;;;;;;;0.00;0.00;;;;;;;;;;1760109;28;20463;-71
2022/09/13 00:47:57;;;;;;;0.00;0.00;;;;;;;;;;1760127;28;20295;-71
2022/09/13 00:48:49;;;;;;;0.00;0.00;;;;;;;;;;1760006;28;20201;-71
2022/09/13 00:49:42;;;;;;;0.00;0.00;;;;;;;;;;1760510;28;20193;-71
2022/09/13 00:50:34;;;;;;;0.00;0.00;;;;;;;;;;1758467;28;20236;-70
2022/09/13 00:51:29;;;;;;;0.00;0.00;;;;;;;;;;1760215;28;20679;-70
2022/09/13 00:52:22;;;;;;;0.00;0.00;;;;;;;;;;1759857;28;20201;-70
2022/09/13 00:53:16;;;;;;;0.00;0.00;;;;;;;;;;1760346;28;20296;-70
2022/09/13 00:54:07;;;;;;;0.00;0.00;;;;;;;;;;1760046;28;20212;-70
2022/09/13 00:55:04;;;;;;;0.00;0.00;;;;;;;;;;1760369;28;20197;-70
2022/09/13 00:55:58;;;;;;;0.00;0.00;;;;;;;;;;1758232;28;20224;-71
2022/09/13 00:56:51;;;;;;;0.00;0.00;;;;;;;;;;1760400;28;20208;-71
2022/09/13 00:57:43;;;;;;;0.00;0.00;;;;;;;;;;1760197;28;20201;-72
2022/09/13 00:58:37;;;;;;;0.00;0.00;;;;;;;;;;1760487;28;20196;-71
2022/09/13 00:59:30;;;;;;;0.00;0.00;;;;;;;;;;1760051;28;20705;-71
2022/09/13 01:00:22;;;;;;;0.00;0.00;;;;;;;;;;1754562;28;20205;-70
2022/09/13 01:01:15;;;;;;;0.00;0.00;;;;;;;;;;1762071;27;20354;-71
2022/09/13 01:02:08;;;;;;;0.00;0.00;;;;;;;;;;1757260;28;20201;-70
2022/09/13 01:03:01;;;;;;;0.00;0.00;;;;;;;;;;1756762;28;20206;-71
2022/09/13 01:03:53;;;;;;;0.00;0.00;;;;;;;;;;1754811;28;20851;-71
2022/09/13 01:04:44;;;;;;;0.00;0.00;;;;;;;;;;1760040;28;20236;-70
2022/09/13 01:05:37;;;;;;;0.00;0.00;;;;;;;;;;1758730;28;20762;-72
2022/09/13 01:06:31;;;;;;;0.00;0.00;;;;;;;;;;1759783;28;20208;-71
2022/09/13 01:07:24;;;;;;;0.00;0.00;;;;;;;;;;1759701;28;20204;-71
2022/09/13 01:08:21;;;;;;;0.00;0.00;;;;;;;;;;1760199;28;20205;-71
2022/09/13 01:09:14;;;;;;;0.00;0.00;;;;;;;;;;1760007;28;20253;-72
2022/09/13 01:10:06;;;;;;;0.00;0.00;;;;;;;;;;1760819;28;20571;-72
2022/09/13 01:11:00;;;;;;;0.00;0.00;;;;;;;;;;1758267;28;20242;-71
2022/09/13 01:11:54;;;;;;;0.00;0.00;;;;;;;;;;1759571;28;20225;-71
2022/09/13 01:12:49;;;;;;;0.00;0.00;;;;;;;;;;1759978;28;20712;-71
2022/09/13 01:13:41;;;;;;;0.00;0.00;;;;;;;;;;1760105;28;20212;-72
2022/09/13 01:14:33;;;;;;;0.00;0.00;;;;;;;;;;1759921;28;20193;-72
2022/09/13 01:15:24;;;;;;;0.00;0.00;;;;;;;;;;1758732;28;20200;-70
2022/09/13 01:16:16;;;;;;;0.00;0.00;;;;;;;;;;1756327;28;20331;-70
2022/09/13 01:17:08;;;;;;;0.00;0.00;;;;;;;;;;1759839;28;20213;-70
2022/09/13 01:18:00;;;;;;;0.00;0.00;;;;;;;;;;1759845;28;20208;-70
2022/09/13 01:18:52;;;;;;;0.00;0.00;;;;;;;;;;1759571;28;20470;-70
2022/09/13 01:19:44;;;;;;;0.00;0.00;;;;;;;;;;1759926;28;20521;-70
2022/09/13 01:20:42;;;;;;;0.00;0.00;;;;;;;;;;1758592;28;20524;-72
2022/09/13 01:21:53;;;;;;;0.00;0.00;;;;;;;;;;1760096;28;20258;-72
2022/09/13 01:23:02;;;;;;;0.00;0.00;;;;;;;;;;1759537;28;20208;-72
2022/09/13 01:24:09;;;;;;;0.00;0.00;;;;;;;;;;1761130;28;20527;-72
2022/09/13 01:25:22;;;;;;;0.00;0.00;;;;;;;;;;1767180;28;20211;-72
2022/09/13 01:26:30;;;;;;;0.00;0.00;;;;;;;;;;1765978;28;20335;-70
2022/09/13 01:27:38;;;;;;;0.00;0.00;;;;;;;;;;1766761;28;20204;-70
2022/09/13 01:28:43;;;;;;;0.00;0.00;;;;;;;;;;1766914;28;20284;-70
2022/09/13 01:29:55;;;;;;;0.00;0.00;;;;;;;;;;1760497;28;20618;-70
2022/09/13 01:30:52;;;;;;;0.00;0.00;;;;;;;;;;1753449;28;20321;-72
2022/09/13 01:31:47;;;;;;;0.00;0.00;;;;;;;;;;1761463;28;20240;-72
2022/09/13 01:33:03;;;;;;;0.00;0.00;;;;;;;;;;1761220;28;20655;-71
2022/09/13 01:34:01;;;;;;;0.00;0.00;;;;;;;;;;1734907;28;20207;-72
2022/09/13 01:35:03;;;;;;;0.00;0.00;;;;;;;;;;1761240;28;20196;-71
2022/09/13 01:36:05;;;;;;;0.00;0.00;;;;;;;;;;1759648;28;20233;-71
2022/09/13 01:37:06;;;;;;;0.00;0.00;;;;;;;;;;1761249;28;20193;-71
2022/09/13 01:38:02;;;;;;;0.00;0.00;;;;;;;;;;1768608;27;20558;-72
2022/09/13 01:38:57;;;;;;;0.00;0.00;;;;;;;;;;1768072;27;20696;-71
2022/09/13 01:39:55;;;;;;;0.00;0.00;;;;;;;;;;1768588;27;20558;-71
2022/09/13 01:40:52;;;;;;;0.00;0.00;;;;;;;;;;1767171;27;20220;-71
2022/09/13 01:41:59;;;;;;;0.00;0.00;;;;;;;;;;1768629;27;20641;-71
2022/09/13 01:43:02;;;;;;;0.00;0.00;;;;;;;;;;1765571;27;20569;-71
2022/09/13 01:43:56;;;;;;;0.00;0.00;;;;;;;;;;1768252;27;20249;-71
2022/09/13 01:44:55;;;;;;;0.00;0.00;;;;;;;;;;1768028;27;20204;-71
2022/09/13 01:45:53;;;;;;;0.00;0.00;;;;;;;;;;1767132;27;20712;-71
2022/09/13 01:46:48;;;;;;;0.00;0.00;;;;;;;;;;1768598;27;20215;-71
2022/09/13 01:47:44;;;;;;;0.00;0.00;;;;;;;;;;1768173;27;20587;-71
2022/09/13 01:48:43;;;;;;;0.00;0.00;;;;;;;;;;1768496;27;20196;-71
2022/09/13 01:49:42;;;;;;;0.00;0.00;;;;;;;;;;1768303;27;20208;-71
2022/09/13 01:50:37;;;;;;;0.00;0.00;;;;;;;;;;1766882;27;20353;-70
2022/09/13 01:51:32;;;;;;;0.00;0.00;;;;;;;;;;1768361;27;20253;-70
2022/09/13 01:52:27;;;;;;;0.00;0.00;;;;;;;;;;1765842;27;20329;-70
2022/09/13 01:53:22;;;;;;;0.00;0.00;;;;;;;;;;1761482;27;20385;-70
2022/09/13 01:54:17;;;;;;;0.00;0.00;;;;;;;;;;1761288;28;20197;-70
2022/09/13 01:55:13;;;;;;;0.00;0.00;;;;;;;;;;1761760;28;20220;-70
2022/09/13 01:56:09;;;;;;;0.00;0.00;;;;;;;;;;1766546;27;20258;-71
2022/09/13 01:57:01;;;;;;;0.00;0.00;;;;;;;;;;1768094;27;20201;-72
2022/09/13 01:57:55;;;;;;;0.00;0.00;;;;;;;;;;1768161;27;20207;-72
2022/09/13 01:58:49;;;;;;;0.00;0.00;;;;;;;;;;1767447;27;20576;-71
2022/09/13 01:59:47;;;;;;;0.00;0.00;;;;;;;;;;1761341;27;20201;-71
2022/09/13 02:00:44;;;;;;;0.00;0.00;;;;;;;;;;1758774;27;20741;-70
2022/09/13 02:01:39;;;;;;;0.00;0.00;;;;;;;;;;1759826;28;20204;-70
2022/09/13 02:02:32;;;;;;;0.00;0.00;;;;;;;;;;1758522;28;20209;-70
2022/09/13 02:03:28;;;;;;;0.00;0.00;;;;;;;;;;1761247;28;20200;-71
2022/09/13 02:04:21;;;;;;;0.00;0.00;;;;;;;;;;1760120;28;20591;-71
2022/09/13 02:05:15;;;;;;;0.00;0.00;;;;;;;;;;1760375;28;20205;-70
2022/09/13 02:06:08;;;;;;;0.00;0.00;;;;;;;;;;1760579;28;20200;-70
2022/09/13 02:07:03;;;;;;;0.00;0.00;;;;;;;;;;1760862;28;20665;-70
2022/09/13 02:07:57;;;;;;;0.00;0.00;;;;;;;;;;1768236;27;20226;-70
2022/09/13 02:08:51;;;;;;;0.00;0.00;;;;;;;;;;1767676;27;20200;-70
2022/09/13 02:09:45;;;;;;;0.00;0.00;;;;;;;;;;1768432;27;20212;-70
2022/09/13 02:10:39;;;;;;;0.00;0.00;;;;;;;;;;1766419;27;20237;-70
2022/09/13 02:11:30;;;;;;;0.00;0.00;;;;;;;;;;1768053;27;20224;-70
2022/09/13 02:12:24;;;;;;;0.00;0.00;;;;;;;;;;1767582;27;20255;-70
2022/09/13 02:13:17;;;;;;;0.00;0.00;;;;;;;;;;1768497;27;20231;-70
2022/09/13 02:14:12;;;;;;;0.00;0.00;;;;;;;;;;1768115;27;20211;-70
2022/09/13 02:15:07;;;;;;;0.00;0.00;;;;;;;;;;1757156;28;20232;-71
2022/09/13 02:16:01;;;;;;;0.00;0.00;;;;;;;;;;1758281;27;20352;-70
2022/09/13 02:16:56;;;;;;;0.00;0.00;;;;;;;;;;1759921;27;20842;-70
2022/09/13 02:17:50;;;;;;;0.00;0.00;;;;;;;;;;1761307;28;20216;-70
2022/09/13 02:18:42;;;;;;;0.00;0.00;;;;;;;;;;1761465;27;20484;-70
2022/09/13 02:19:36;;;;;;;0.00;0.00;;;;;;;;;;1767564;27;20678;-70
2022/09/13 02:20:29;;;;;;;0.00;0.00;;;;;;;;;;1764544;27;20450;-70
2022/09/13 02:21:22;;;;;;;0.00;0.00;;;;;;;;;;1761302;28;20197;-70
2022/09/13 02:22:16;;;;;;;0.00;0.00;;;;;;;;;;1762534;27;20561;-71
2022/09/13 02:23:09;;;;;;;0.00;0.00;;;;;;;;;;1768367;27;20215;-70
2022/09/13 02:24:03;;;;;;;0.00;0.00;;;;;;;;;;1767262;27;20207;-70
2022/09/13 02:24:57;;;;;;;0.00;0.00;;;;;;;;;;1767852;27;20200;-70
2022/09/13 02:25:50;;;;;;;0.00;0.00;;;;;;;;;;1766407;27;20316;-70
2022/09/13 02:26:44;;;;;;;0.00;0.00;;;;;;;;;;1768324;27;20200;-70
2022/09/13 02:27:37;;;;;;;0.00;0.00;;;;;;;;;;1767683;27;20192;-70
2022/09/13 02:28:31;;;;;;;0.00;0.00;;;;;;;;;;1768489;27;20728;-70
2022/09/13 02:29:24;;;;;;;0.00;0.00;;;;;;;;;;1763703;27;20197;-70
2022/09/13 02:30:16;;;;;;;0.00;0.00;;;;;;;;;;1755041;28;20197;-70
2022/09/13 02:31:08;;;;;;;0.00;0.00;;;;;;;;;;1758660;28;20189;-70
2022/09/13 02:32:03;;;;;;;0.00;0.00;;;;;;;;;;1758089;28;20202;-70
2022/09/13 02:32:58;;;;;;;0.00;0.00;;;;;;;;;;1757213;28;20706;-70
2022/09/13 02:33:51;;;;;;;0.00;0.00;;;;;;;;;;1755655;28;20217;-70
2022/09/13 02:34:46;;;;;;;0.00;0.00;;;;;;;;;;1761323;28;20578;-70
2022/09/13 02:35:40;;;;;;;0.00;0.00;;;;;;;;;;1759582;28;20237;-70
2022/09/13 02:36:34;;;;;;;0.00;0.00;;;;;;;;;;1761104;28;20201;-70
2022/09/13 02:37:27;;;;;;;0.00;0.00;;;;;;;;;;1764483;27;20537;-70
2022/09/13 02:38:21;;;;;;;0.00;0.00;;;;;;;;;;1768334;27;20709;-70
2022/09/13 02:39:14;;;;;;;0.00;0.00;;;;;;;;;;1767306;27;20223;-70
2022/09/13 02:40:09;;;;;;;0.00;0.00;;;;;;;;;;1768920;27;20241;-70
2022/09/13 02:41:03;;;;;;;0.00;0.00;;;;;;;;;;1765226;27;20265;-70
2022/09/13 02:41:57;;;;;;;0.00;0.00;;;;;;;;;;1768292;27;20192;-71
2022/09/13 02:42:51;;;;;;;0.00;0.00;;;;;;;;;;1767814;27;20200;-70
2022/09/13 02:43:47;;;;;;;0.00;0.00;;;;;;;;;;1767819;27;20567;-70
2022/09/13 02:44:39;;;;;;;0.00;0.00;;;;;;;;;;1767990;27;20201;-70
2022/09/13 02:45:34;;;;;;;0.00;0.00;;;;;;;;;;1766526;27;20307;-70
2022/09/13 02:46:34;;;;;;;0.00;0.00;;;;;;;;;;1768230;27;20394;-70
2022/09/13 02:47:34;;;;;;;0.00;0.00;;;;;;;;;;1767225;27;20554;-70
2022/09/13 02:48:29;;;;;;;0.00;0.00;;;;;;;;;;1768230;27;20599;-70
2022/09/13 02:49:26;;;;;;;0.00;0.00;;;;;;;;;;1767028;27;20228;-70
2022/09/13 02:50:25;;;;;;;0.00;0.00;;;;;;;;;;1766820;27;20218;-70
2022/09/13 02:51:22;;;;;;;0.00;0.00;;;;;;;;;;1760950;28;20204;-70
2022/09/13 02:52:17;;;;;;;0.00;0.00;;;;;;;;;;1762449;27;20543;-70
2022/09/13 02:53:13;;;;;;;0.00;0.00;;;;;;;;;;1768309;27;20684;-70
2022/09/13 02:54:09;;;;;;;0.00;0.00;;;;;;;;;;1767336;27;20294;-70
2022/09/13 02:55:07;;;;;;;0.00;0.00;;;;;;;;;;1767946;27;20199;-70
2022/09/13 02:56:03;;;;;;;0.00;0.00;;;;;;;;;;1765750;27;20338;-70
2022/09/13 02:56:58;;;;;;;0.00;0.00;;;;;;;;;;1768107;27;20231;-70
2022/09/13 02:57:57;;;;;;;0.00;0.00;;;;;;;;;;1766785;27;20565;-70
2022/09/13 02:58:53;;;;;;;0.00;0.00;;;;;;;;;;1767186;27;20261;-70
2022/09/13 02:59:45;;;;;;;0.00;0.00;;;;;;;;;;1760166;28;20209;-70
2022/09/13 03:00:37;;;;;;;0.00;0.00;;;;;;;;;;1755086;28;20248;-72
2022/09/13 03:01:29;;;;;;;0.00;0.00;;;;;;;;;;1763436;27;20204;-71
2022/09/13 03:02:23;;;;;;;0.00;0.00;;;;;;;;;;1761409;27;20276;-71
2022/09/13 03:03:16;;;;;;;0.00;0.00;;;;;;;;;;1761252;28;20649;-71
2022/09/13 03:04:08;;;;;;;0.00;0.00;;;;;;;;;;1764302;27;20262;-72
2022/09/13 03:04:59;;;;;;;0.00;0.00;;;;;;;;;;1758094;28;20201;-72
2022/09/13 03:05:51;;;;;;;0.00;0.00;;;;;;;;;;1750470;28;20229;-71
2022/09/13 03:06:43;;;;;;;0.00;0.00;;;;;;;;;;1753624;28;20767;-71
2022/09/13 03:07:35;;;;;;;0.00;0.00;;;;;;;;;;1753461;28;20497;-72
2022/09/13 03:08:26;;;;;;;0.00;0.00;;;;;;;;;;1746963;28;20446;-72
2022/09/13 03:09:19;;;;;;;0.00;0.00;;;;;;;;;;1752325;28;20202;-71
2022/09/13 03:10:12;;;;;;;0.00;0.00;;;;;;;;;;1753640;28;20205;-72
2022/09/13 03:11:12;;;;;;;0.00;0.00;;;;;;;;;;1752429;28;20237;-71
2022/09/13 03:12:13;;;;;;;0.00;0.00;;;;;;;;;;1753148;28;20244;-72
2022/09/13 03:13:18;;;;;;;0.00;0.00;;;;;;;;;;1753914;28;20202;-71
2022/09/13 03:14:27;;;;;;;0.00;0.00;;;;;;;;;;1753584;28;20856;-71
2022/09/13 03:15:23;;;;;;;0.00;0.00;;;;;;;;;;1751844;28;20216;-71
2022/09/13 03:16:19;;;;;;;0.00;0.00;;;;;;;;;;1753156;28;20216;-71
2022/09/13 03:17:18;;;;;;;0.00;0.00;;;;;;;;;;1753386;28;20186;-72
2022/09/13 03:18:16;;;;;;;0.00;0.00;;;;;;;;;;1753800;28;20206;-72
2022/09/13 03:19:26;;;;;;;0.00;0.00;;;;;;;;;;1752851;28;20237;-71
2022/09/13 03:20:24;;;;;;;0.00;0.00;;;;;;;;;;1751959;28;20209;-72
2022/09/13 03:21:24;;;;;;;0.00;0.00;;;;;;;;;;1753477;28;20489;-71
2022/09/13 03:22:22;;;;;;;0.00;0.00;;;;;;;;;;1752965;28;20202;-71
2022/09/13 03:23:27;;;;;;;0.00;0.00;;;;;;;;;;1753802;28;20201;-72
2022/09/13 03:24:22;;;;;;;0.00;0.00;;;;;;;;;;1753439;28;20220;-72
2022/09/13 03:25:20;;;;;;;0.00;0.00;;;;;;;;;;1752787;28;20518;-70
2022/09/13 03:26:24;;;;;;;0.00;0.00;;;;;;;;;;1753888;28;20213;-70
2022/09/13 03:27:20;;;;;;;0.00;0.00;;;;;;;;;;1753210;28;20651;-70
2022/09/13 03:28:17;;;;;;;0.00;0.00;;;;;;;;;;1754064;28;20650;-70
2022/09/13 03:29:24;;;;;;;0.00;0.00;;;;;;;;;;1753255;28;20513;-70
2022/09/13 03:30:17;;;;;;;0.00;0.00;;;;;;;;;;1745154;28;20202;-70
2022/09/13 03:31:11;;;;;;;0.00;0.00;;;;;;;;;;1753011;28;20706;-70
2022/09/13 03:32:06;;;;;;;0.00;0.00;;;;;;;;;;1756827;28;20206;-71
2022/09/13 03:33:02;;;;;;;0.00;0.00;;;;;;;;;;1753323;28;20236;-70
2022/09/13 03:33:57;;;;;;;0.00;0.00;;;;;;;;;;1753407;28;20292;-70
2022/09/13 03:34:52;;;;;;;0.00;0.00;;;;;;;;;;1753911;28;20289;-70
2022/09/13 03:35:50;;;;;;;0.00;0.00;;;;;;;;;;1752621;28;20233;-72
2022/09/13 03:36:45;;;;;;;0.00;0.00;;;;;;;;;;1754070;28;20555;-71
2022/09/13 03:37:42;;;;;;;0.00;0.00;;;;;;;;;;1753452;28;20201;-71
2022/09/13 03:38:38;;;;;;;0.00;0.00;;;;;;;;;;1753584;28;20198;-72
2022/09/13 03:39:35;;;;;;;0.00;0.00;;;;;;;;;;1752362;28;20209;-71
2022/09/13 03:40:32;;;;;;;0.00;0.00;;;;;;;;;;1752438;28;20205;-71
2022/09/13 03:41:27;;;;;;;0.00;0.00;;;;;;;;;;1753807;28;20201;-71
2022/09/13 03:42:21;;;;;;;0.00;0.00;;;;;;;;;;1753242;28;20216;-70
2022/09/13 03:43:14;;;;;;;0.00;0.00;;;;;;;;;;1753877;28;20206;-70
2022/09/13 03:44:08;;;;;;;0.00;0.00;;;;;;;;;;1753272;28;20239;-70
2022/09/13 03:45:02;;;;;;;0.00;0.00;;;;;;;;;;1753674;28;20365;-70
2022/09/13 03:45:56;;;;;;;0.00;0.00;;;;;;;;;;1751804;28;20308;-70
2022/09/13 03:46:48;;;;;;;0.00;0.00;;;;;;;;;;1753557;28;20345;-70
2022/09/13 03:47:41;;;;;;;0.00;0.00;;;;;;;;;;1753349;28;20627;-70
2022/09/13 03:48:35;;;;;;;0.00;0.00;;;;;;;;;;1753521;28;20202;-70
2022/09/13 03:49:28;;;;;;;0.00;0.00;;;;;;;;;;1753130;28;20208;-70
2022/09/13 03:50:20;;;;;;;0.00;0.00;;;;;;;;;;1752190;28;20212;-72
2022/09/13 03:51:14;;;;;;;0.00;0.00;;;;;;;;;;1753698;28;20535;-71
2022/09/13 03:52:06;;;;;;;0.00;0.00;;;;;;;;;;1752593;28;20232;-71
2022/09/13 03:53:01;;;;;;;0.00;0.00;;;;;;;;;;1752602;28;20290;-71
2022/09/13 03:53:55;;;;;;;0.00;0.00;;;;;;;;;;1753204;28;20474;-71
2022/09/13 03:54:47;;;;;;;0.00;0.00;;;;;;;;;;1753359;28;20275;-71
2022/09/13 03:55:40;;;;;;;0.00;0.00;;;;;;;;;;1751971;28;20233;-72
2022/09/13 03:56:32;;;;;;;0.00;0.00;;;;;;;;;;1753486;28;20209;-72
2022/09/13 03:57:23;;;;;;;0.00;0.00;;;;;;;;;;1752969;28;20202;-71
2022/09/13 03:58:17;;;;;;;0.00;0.00;;;;;;;;;;1753811;28;20212;-71
2022/09/13 03:59:09;;;;;;;0.00;0.00;;;;;;;;;;1752843;28;20217;-72
2022/09/13 04:00:04;;;;;;;0.00;0.00;;;;;;;;;;1750011;28;20194;-72
2022/09/13 04:00:56;;;;;;;0.00;0.00;;;;;;;;;;1747386;28;20291;-70
2022/09/13 04:01:48;;;;;;;0.00;0.00;;;;;;;;;;1747301;28;20567;-70
2022/09/13 04:02:39;;;;;;;0.00;0.00;;;;;;;;;;1752881;28;20207;-70
2022/09/13 04:03:31;;;;;;;0.00;0.00;;;;;;;;;;1753556;28;20728;-70
2022/09/13 04:04:23;;;;;;;0.00;0.00;;;;;;;;;;1760256;27;20649;-70
2022/09/13 04:05:15;;;;;;;0.00;0.00;;;;;;;;;;1761331;27;20204;-70
2022/09/13 04:06:06;;;;;;;0.00;0.00;;;;;;;;;;1759283;27;20850;-70
2022/09/13 04:07:02;;;;;;;0.00;0.00;;;;;;;;;;1767430;27;20588;-70
2022/09/13 04:07:53;;;;;;;0.00;0.00;;;;;;;;;;1767479;27;20271;-70
2022/09/13 04:08:45;;;;;;;0.00;0.00;;;;;;;;;;1767637;27;20739;-70
2022/09/13 04:09:36;;;;;;;0.00;0.00;;;;;;;;;;1767513;27;20200;-70
2022/09/13 04:10:30;;;;;;;0.00;0.00;;;;;;;;;;1766117;27;21707;-71
2022/09/13 04:11:22;;;;;;;0.00;0.00;;;;;;;;;;1767587;27;20661;-72
2022/09/13 04:12:14;;;;;;;0.00;0.00;;;;;;;;;;1767055;27;20208;-72
2022/09/13 04:13:06;;;;;;;0.00;0.00;;;;;;;;;;1767534;27;20228;-72
2022/09/13 04:13:58;;;;;;;0.00;0.00;;;;;;;;;;1767030;27;20232;-72
2022/09/13 04:14:49;;;;;;;0.00;0.00;;;;;;;;;;1767239;27;20220;-69
2022/09/13 04:15:41;;;;;;;0.00;0.00;;;;;;;;;;1765828;27;20228;-70
2022/09/13 04:16:32;;;;;;;0.00;0.00;;;;;;;;;;1767155;27;20204;-70
2022/09/13 04:17:25;;;;;;;0.00;0.00;;;;;;;;;;1766997;27;20560;-70
2022/09/13 04:18:16;;;;;;;0.00;0.00;;;;;;;;;;1767565;27;20331;-70
2022/09/13 04:19:09;;;;;;;0.00;0.00;;;;;;;;;;1765799;27;20606;-70
2022/09/13 04:20:00;;;;;;;0.00;0.00;;;;;;;;;;1757498;27;20205;-70
2022/09/13 04:20:56;;;;;;;0.00;0.00;;;;;;;;;;1753778;28;20221;-69
2022/09/13 04:21:47;;;;;;;0.00;0.00;;;;;;;;;;1759303;28;20350;-69
2022/09/13 04:22:41;;;;;;;0.00;0.00;;;;;;;;;;1759876;27;20197;-69
2022/09/13 04:23:32;;;;;;;0.00;0.00;;;;;;;;;;1752887;28;20210;-69
2022/09/13 04:24:26;;;;;;;0.00;0.00;;;;;;;;;;1758485;28;20220;-69
2022/09/13 04:25:17;;;;;;;0.00;0.00;;;;;;;;;;1754345;28;20201;-69
2022/09/13 04:26:10;;;;;;;0.00;0.00;;;;;;;;;;1759578;28;20460;-69
2022/09/13 04:27:01;;;;;;;0.00;0.00;;;;;;;;;;1759245;28;20217;-69
2022/09/13 04:27:58;;;;;;;0.00;0.00;;;;;;;;;;1763267;27;20586;-69
2022/09/13 04:28:52;;;;;;;0.00;0.00;;;;;;;;;;1760027;28;20216;-69
2022/09/13 04:29:44;;;;;;;0.00;0.00;;;;;;;;;;1759552;28;20228;-69
2022/09/13 04:30:35;;;;;;;0.00;0.00;;;;;;;;;;1751947;28;20235;-69
2022/09/13 04:31:27;;;;;;;0.00;0.00;;;;;;;;;;1754478;28;20720;-69
2022/09/13 04:32:18;;;;;;;0.00;0.00;;;;;;;;;;1756761;28;20201;-69
2022/09/13 04:33:10;;;;;;;0.00;0.00;;;;;;;;;;1756065;28;20221;-69
2022/09/13 04:34:02;;;;;;;0.00;0.00;;;;;;;;;;1760060;27;20208;-69
2022/09/13 04:34:54;;;;;;;0.00;0.00;;;;;;;;;;1758287;27;20192;-69
2022/09/13 04:35:46;;;;;;;0.00;0.00;;;;;;;;;;1760040;28;20570;-70
2022/09/13 04:36:38;;;;;;;0.00;0.00;;;;;;;;;;1760498;28;20200;-71
2022/09/13 04:37:29;;;;;;;0.00;0.00;;;;;;;;;;1759911;28;20249;-72
2022/09/13 04:38:22;;;;;;;0.00;0.00;;;;;;;;;;1759213;28;20200;-70
2022/09/13 04:39:13;;;;;;;0.00;0.00;;;;;;;;;;1758507;28;20511;-70
2022/09/13 04:40:06;;;;;;;0.00;0.00;;;;;;;;;;1758470;28;20196;-70
2022/09/13 04:40:58;;;;;;;0.00;0.00;;;;;;;;;;1756849;28;20244;-70
2022/09/13 04:41:50;;;;;;;0.00;0.00;;;;;;;;;;1764820;27;20203;-70
2022/09/13 04:42:43;;;;;;;0.00;0.00;;;;;;;;;;1758970;28;20208;-70
2022/09/13 04:43:35;;;;;;;0.00;0.00;;;;;;;;;;1760078;28;20199;-70
2022/09/13 04:44:26;;;;;;;0.00;0.00;;;;;;;;;;1760064;28;20223;-70
2022/09/13 04:45:19;;;;;;;0.00;0.00;;;;;;;;;;1759205;28;20215;-69
2022/09/13 04:46:10;;;;;;;0.00;0.00;;;;;;;;;;1758113;28;20216;-69
2022/09/13 04:47:02;;;;;;;0.00;0.00;;;;;;;;;;1753665;28;20197;-69
2022/09/13 04:47:54;;;;;;;0.00;0.00;;;;;;;;;;1760237;28;20489;-69
2022/09/13 04:48:49;;;;;;;0.00;0.00;;;;;;;;;;1760804;28;20273;-69
2022/09/13 04:49:40;;;;;;;0.00;0.00;;;;;;;;;;1767634;27;20196;-69
2022/09/13 04:50:32;;;;;;;0.00;0.00;;;;;;;;;;1765234;27;20231;-69
2022/09/13 04:51:24;;;;;;;0.00;0.00;;;;;;;;;;1767179;27;20219;-69
2022/09/13 04:52:16;;;;;;;0.00;0.00;;;;;;;;;;1766989;27;20200;-69
2022/09/13 04:53:07;;;;;;;0.00;0.00;;;;;;;;;;1767278;27;20665;-69
2022/09/13 04:54:00;;;;;;;0.00;0.00;;;;;;;;;;1766690;27;20203;-69
2022/09/13 04:54:52;;;;;;;0.00;0.00;;;;;;;;;;1767155;27;20200;-69
2022/09/13 04:55:44;;;;;;;0.00;0.00;;;;;;;;;;1765912;27;20228;-70
2022/09/13 04:56:35;;;;;;;0.00;0.00;;;;;;;;;;1767229;27;20629;-70
2022/09/13 04:57:27;;;;;;;0.00;0.00;;;;;;;;;;1766805;27;20625;-70
2022/09/13 04:58:20;;;;;;;0.00;0.00;;;;;;;;;;1763563;27;20423;-70
2022/09/13 04:59:13;;;;;;;0.00;0.00;;;;;;;;;;1757629;28;20250;-70
2022/09/13 05:00:05;;;;;;;0.00;0.00;;;;;;;;;;1756849;28;20205;-70
2022/09/13 05:01:01;;;;;;;0.00;0.00;;;;;;;;;;1754275;28;20252;-70
2022/09/13 05:01:52;;;;;;;0.00;0.00;;;;;;;;;;1754756;28;20370;-70
2022/09/13 05:02:44;;;;;;;0.00;0.00;;;;;;;;;;1766327;28;20207;-70
2022/09/13 05:03:36;;;;;;;0.00;0.00;;;;;;;;;;1767039;27;20204;-70
2022/09/13 05:04:28;;;;;;;0.00;0.00;;;;;;;;;;1765060;28;20695;-70
2022/09/13 05:05:19;;;;;;;0.00;0.00;;;;;;;;;;1758890;28;20216;-69
2022/09/13 05:06:12;;;;;;;0.00;0.00;;;;;;;;;;1767240;27;20197;-69
2022/09/13 05:07:04;;;;;;;0.00;0.00;;;;;;;;;;1766933;27;20200;-69
2022/09/13 05:07:56;;;;;;;0.00;0.00;;;;;;;;;;1767147;28;20196;-69
2022/09/13 05:08:50;;;;;;;0.00;0.00;;;;;;;;;;1767038;28;20226;-69
2022/09/13 05:09:44;;;;;;;0.00;0.00;;;;;;;;;;1767277;28;20620;-69
2022/09/13 05:10:35;;;;;;;0.00;0.00;;;;;;;;;;1765431;28;20235;-69
2022/09/13 05:11:28;;;;;;;0.00;0.00;;;;;;;;;;1767191;28;20679;-69
2022/09/13 05:12:19;;;;;;;0.00;0.00;;;;;;;;;;1765073;28;20625;-69
2022/09/13 05:13:12;;;;;;;0.00;0.00;;;;;;;;;;1760000;28;20217;-69
2022/09/13 05:14:04;;;;;;;0.00;0.00;;;;;;;;;;1759780;28;20216;-69
2022/09/13 05:14:56;;;;;;;0.00;0.00;;;;;;;;;;1760089;28;20208;-69
2022/09/13 05:15:47;;;;;;;0.00;0.00;;;;;;;;;;1758529;28;20270;-70
2022/09/13 05:16:40;;;;;;;0.00;0.00;;;;;;;;;;1760558;28;20281;-70
2022/09/13 05:17:31;;;;;;;0.00;0.00;;;;;;;;;;1764577;28;20196;-70
2022/09/13 05:18:23;;;;;;;0.00;0.00;;;;;;;;;;1767187;28;20196;-70
2022/09/13 05:19:14;;;;;;;0.00;0.00;;;;;;;;;;1766880;28;20208;-70
2022/09/13 05:20:07;;;;;;;0.00;0.00;;;;;;;;;;1767657;28;20635;-70
2022/09/13 05:20:59;;;;;;;0.00;0.00;;;;;;;;;;1764987;28;20224;-70
2022/09/13 05:21:51;;;;;;;0.00;0.00;;;;;;;;;;1766967;28;20204;-70
2022/09/13 05:22:42;;;;;;;0.00;0.00;;;;;;;;;;1766728;28;20196;-70
2022/09/13 05:23:34;;;;;;;0.00;0.00;;;;;;;;;;1767115;28;20625;-70
2022/09/13 05:24:25;;;;;;;0.00;0.00;;;;;;;;;;1766700;28;20537;-70
2022/09/13 05:25:19;;;;;;;0.00;0.00;;;;;;;;;;1766060;28;20207;-70